TimeCST,TemperatureF,Dew PointF,Humidity,Sea Level PressureIn,VisibilityMPH,Wind Direction,Wind SpeedMPH,Gust SpeedMPH,PrecipitationIn,Events,Conditions,WindDirDegrees,DateUTC
12:15 AM,34.5,24.1,66,29.92,10.0,SW,5.8,-,N/A,,Clear,220,2012-12-23 06:15:00
12:35 AM,34.7,24.4,66,29.92,10.0,Calm,Calm,-,N/A,,Clear,0,2012-12-23 06:35:00
12:55 AM,32.9,23.7,69,29.91,10.0,Calm,Calm,-,N/A,,Clear,0,2012-12-23 06:55:00
1:15 AM,35.2,23.7,63,29.92,10.0,West,3.5,-,N/A,,Clear,280,2012-12-23 07:15:00
1:35 AM,35.1,23.7,63,29.92,10.0,Calm,Calm,-,N/A,,Clear,0,2012-12-23 07:35:00
1:55 AM,34.2,23.7,66,29.93,10.0,WNW,3.5,-,N/A,,Clear,290,2012-12-23 07:55:00
2:15 AM,34.0,23.9,67,29.93,10.0,WNW,3.5,-,N/A,,Clear,290,2012-12-23 08:15:00
2:35 AM,33.3,23.7,68,29.93,10.0,West,4.6,-,N/A,,Clear,280,2012-12-23 08:35:00
2:55 AM,32.0,23.5,71,29.93,10.0,NW,4.6,-,N/A,,Clear,310,2012-12-23 08:55:00
3:15 AM,32.0,23.9,72,29.93,10.0,WNW,3.5,-,N/A,,Clear,300,2012-12-23 09:15:00
3:35 AM,32.0,24.1,73,29.93,10.0,WNW,4.6,-,N/A,,Clear,300,2012-12-23 09:35:00
3:55 AM,31.6,23.9,73,29.93,10.0,WNW,4.6,-,N/A,,Clear,300,2012-12-23 09:55:00
4:15 AM,31.8,24.3,74,29.93,10.0,WNW,5.8,-,N/A,,Clear,300,2012-12-23 10:15:00
4:35 AM,29.1,23.4,79,29.93,10.0,WNW,3.5,-,N/A,,Clear,290,2012-12-23 10:35:00
4:55 AM,28.2,23.2,81,29.93,10.0,WNW,3.5,-,N/A,,Clear,300,2012-12-23 10:55:00
5:15 AM,29.1,23.5,80,29.93,10.0,NW,5.8,-,N/A,,Clear,320,2012-12-23 11:15:00
5:35 AM,28.6,23.7,82,29.93,10.0,NNW,5.8,-,N/A,,Clear,340,2012-12-23 11:35:00
5:55 AM,30.2,24.4,79,29.93,10.0,North,5.8,-,N/A,,Clear,350,2012-12-23 11:55:00
6:15 AM,30.4,24.4,79,29.94,10.0,North,5.8,-,N/A,,Clear,350,2012-12-23 12:15:00
6:35 AM,29.7,24.1,80,29.94,10.0,North,4.6,-,N/A,,Clear,10,2012-12-23 12:35:00
6:55 AM,28.4,23.5,82,29.94,10.0,NNE,4.6,-,N/A,,Clear,20,2012-12-23 12:55:00
7:15 AM,27.3,23.0,84,29.95,10.0,Calm,Calm,-,N/A,,Clear,0,2012-12-23 13:15:00
7:35 AM,27.1,23.0,84,29.96,10.0,Calm,Calm,-,N/A,,Clear,0,2012-12-23 13:35:00
7:55 AM,26.1,22.3,86,29.97,10.0,North,4.6,-,N/A,,Clear,360,2012-12-23 13:55:00
8:15 AM,26.6,22.8,86,29.98,10.0,North,4.6,-,N/A,,Clear,350,2012-12-23 14:15:00
8:35 AM,26.6,22.6,85,29.98,10.0,North,3.5,-,N/A,,Clear,360,2012-12-23 14:35:00
8:55 AM,28.0,23.4,83,29.99,10.0,North,3.5,-,N/A,,Clear,360,2012-12-23 14:55:00
9:15 AM,28.9,23.7,81,30.00,10.0,NNE,5.8,-,N/A,,Clear,20,2012-12-23 15:15:00
9:35 AM,29.3,23.7,80,30.00,10.0,NE,4.6,-,N/A,,Clear,50,2012-12-23 15:35:00
9:55 AM,30.9,25.0,79,30.01,10.0,NNE,4.6,-,N/A,,Clear,30,2012-12-23 15:55:00
10:15 AM,31.8,24.8,75,30.01,10.0,NE,5.8,-,N/A,,Clear,40,2012-12-23 16:15:00
10:35 AM,32.2,25.9,78,30.00,10.0,NNE,4.6,-,N/A,,Clear,20,2012-12-23 16:35:00
10:55 AM,32.0,25.9,78,30.00,10.0,North,5.8,-,N/A,,Clear,360,2012-12-23 16:55:00
11:15 AM,32.7,26.1,76,29.99,10.0,NNE,5.8,-,N/A,,Clear,30,2012-12-23 17:15:00
11:35 AM,34.0,26.6,74,29.97,10.0,ENE,6.9,-,N/A,,Clear,70,2012-12-23 17:35:00
11:55 AM,34.7,26.6,72,29.96,10.0,NE,6.9,-,N/A,,Clear,50,2012-12-23 17:55:00
12:15 PM,34.2,26.8,74,29.95,10.0,NNE,5.8,-,N/A,,Clear,30,2012-12-23 18:15:00
12:35 PM,34.7,27.0,73,29.95,10.0,ENE,3.5,-,N/A,,Clear,60,2012-12-23 18:35:00
12:55 PM,35.4,28.0,75,29.95,10.0,NNE,4.6,-,N/A,,Clear,20,2012-12-23 18:55:00
1:15 PM,34.9,27.9,76,29.94,10.0,North,4.6,-,N/A,,Clear,10,2012-12-23 19:15:00
1:35 PM,35.8,28.0,73,29.93,10.0,NE,5.8,-,N/A,,Clear,50,2012-12-23 19:35:00
1:55 PM,35.1,27.7,74,29.91,10.0,NE,8.1,-,N/A,,Clear,40,2012-12-23 19:55:00
2:15 PM,35.2,28.2,76,29.91,10.0,NE,6.9,-,N/A,,Clear,40,2012-12-23 20:15:00
2:35 PM,34.9,28.0,76,29.91,10.0,NE,6.9,-,N/A,,Clear,40,2012-12-23 20:35:00
2:55 PM,34.9,27.9,76,29.91,10.0,NE,6.9,-,N/A,,Clear,40,2012-12-23 20:55:00
3:15 PM,35.1,27.5,74,29.92,10.0,NNE,6.9,-,N/A,,Clear,30,2012-12-23 21:15:00
3:35 PM,35.2,27.7,74,29.93,10.0,NNE,5.8,-,N/A,,Clear,30,2012-12-23 21:35:00
3:55 PM,35.1,27.3,73,29.94,10.0,NNE,5.8,-,N/A,,Clear,20,2012-12-23 21:55:00
4:15 PM,34.2,26.8,74,29.94,10.0,NE,5.8,-,N/A,,Clear,40,2012-12-23 22:15:00
4:35 PM,33.4,27.0,77,29.95,10.0,NE,5.8,-,N/A,,Clear,50,2012-12-23 22:35:00
4:55 PM,32.9,26.6,78,29.95,10.0,NE,5.8,-,N/A,,Clear,40,2012-12-23 22:55:00
5:15 PM,32.2,27.0,81,29.94,10.0,NE,5.8,-,N/A,,Clear,40,2012-12-23 23:15:00
5:35 PM,32.0,27.1,82,29.95,10.0,NE,4.6,-,N/A,,Clear,50,2012-12-23 23:35:00
5:55 PM,32.0,27.5,83,29.95,10.0,NE,6.9,-,N/A,,Clear,40,2012-12-23 23:55:00
6:15 PM,31.8,27.5,84,29.94,10.0,NE,5.8,-,N/A,,Clear,50,2012-12-24 00:15:00
6:35 PM,32.0,27.5,83,29.94,10.0,NE,6.9,-,N/A,,Clear,40,2012-12-24 00:35:00
6:55 PM,31.8,27.5,84,29.94,10.0,NE,4.6,-,N/A,,Clear,50,2012-12-24 00:55:00
7:15 PM,31.6,27.5,85,29.94,10.0,NNE,5.8,-,N/A,,Clear,30,2012-12-24 01:15:00
7:35 PM,31.5,27.5,85,29.93,10.0,NE,6.9,-,N/A,,Clear,40,2012-12-24 01:35:00
7:55 PM,31.1,27.5,87,29.93,7.0,NE,6.9,-,N/A,,Clear,50,2012-12-24 01:55:00
8:15 PM,31.1,27.9,88,29.93,7.0,NE,6.9,-,N/A,,Clear,40,2012-12-24 02:15:00
8:35 PM,31.1,27.7,87,29.93,7.0,NE,5.8,-,N/A,,Clear,40,2012-12-24 02:35:00
8:55 PM,31.1,27.9,88,29.92,7.0,NE,5.8,-,N/A,,Clear,40,2012-12-24 02:55:00
9:15 PM,30.9,27.7,88,29.93,7.0,NNE,4.6,-,N/A,,Clear,30,2012-12-24 03:15:00
9:35 PM,30.7,27.5,88,29.92,7.0,NE,4.6,-,N/A,,Clear,50,2012-12-24 03:35:00
9:55 PM,30.2,27.5,90,29.91,7.0,NE,3.5,-,N/A,,Clear,40,2012-12-24 03:55:00
10:15 PM,30.2,27.3,89,29.92,7.0,North,4.6,-,N/A,,Clear,360,2012-12-24 04:15:00
10:35 PM,30.2,27.5,90,29.92,5.0,North,4.6,-,N/A,,Clear,360,2012-12-24 04:35:00
10:55 PM,30.2,27.5,90,29.91,7.0,North,5.8,-,N/A,,Mostly Cloudy,10,2012-12-24 04:55:00
11:15 PM,30.0,27.1,89,29.91,7.0,North,4.6,-,N/A,,Overcast,360,2012-12-24 05:15:00
11:35 PM,29.8,27.3,90,29.90,7.0,North,4.6,-,N/A,,Overcast,350,2012-12-24 05:35:00
11:55 PM,30.0,27.3,90,29.89,5.0,North,5.8,-,N/A,,Overcast,10,2012-12-24 05:55:00